createdAt,value
2023-02-22T00:02:10.671Z,6.50
2023-02-22T00:04:39.709Z,6.10
2023-02-22T00:07:06.989Z,5.28
2023-02-22T00:09:33.774Z,5.05
2023-02-22T00:12:00.658Z,6.03
2023-02-22T00:14:27.553Z,5.93
2023-02-22T00:16:59.549Z,7.50
2023-02-22T00:19:28.187Z,5.68
2023-02-22T00:21:55.225Z,5.18
2023-02-22T00:24:24.666Z,5.55
2023-02-22T00:26:55.617Z,5.68
2023-02-22T00:29:23.742Z,5.53
2023-02-22T00:31:50.605Z,5.97
2023-02-22T00:34:17.517Z,6.70
2023-02-22T00:36:50.974Z,8.70
2023-02-22T00:39:18.209Z,7.00
2023-02-22T00:41:45.110Z,6.55
2023-02-22T00:44:12.373Z,7.80
2023-02-22T00:46:39.188Z,6.38
2023-02-22T00:49:06.105Z,5.68
2023-02-22T00:51:33.936Z,7.60
2023-02-22T00:54:01.326Z,8.55
2023-02-22T00:56:28.547Z,7.70
2023-02-22T00:58:55.412Z,9.43
2023-02-22T01:01:24.126Z,7.28
2023-02-22T01:03:51.131Z,7.75
2023-02-22T01:06:18.182Z,6.93
2023-02-22T01:08:46.668Z,8.20
2023-02-22T01:11:15.743Z,8.60
2023-02-22T01:13:45.268Z,6.00
2023-02-22T01:16:12.288Z,8.48
2023-02-22T01:18:39.069Z,6.55
2023-02-22T01:21:07.523Z,6.80
2023-02-22T01:23:34.288Z,7.35
2023-02-22T01:26:01.022Z,8.00
2023-02-22T01:28:29.177Z,12.90
2023-02-22T01:30:56.214Z,10.82
2023-02-22T01:33:23.278Z,7.70
2023-02-22T01:35:51.254Z,8.30
2023-02-22T01:38:18.233Z,8.90
2023-02-22T01:40:48.918Z,11.02
2023-02-22T01:43:26.593Z,11.60
2023-02-22T01:46:18.477Z,9.32
2023-02-22T01:48:49.148Z,9.88
2023-02-22T01:51:18.153Z,10.65
2023-02-22T01:53:50.207Z,8.95
2023-02-22T01:56:19.251Z,9.52
2023-02-22T01:58:53.844Z,9.40
2023-02-22T02:01:23.160Z,8.57
2023-02-22T02:03:52.017Z,6.57
2023-02-22T02:06:20.314Z,7.97
2023-02-22T02:09:12.152Z,8.30
2023-02-22T02:11:40.627Z,7.72
2023-02-22T02:14:09.205Z,8.65
2023-02-22T02:16:51.954Z,6.95
2023-02-22T02:19:27.273Z,5.97
2023-02-22T02:22:31.532Z,6.30
2023-02-22T02:25:18.007Z,8.50
2023-02-22T02:30:29.465Z,6.13
2023-02-22T02:33:05.254Z,4.97
2023-02-22T02:35:34.968Z,5.93
2023-02-22T02:38:04.824Z,6.72
2023-02-22T02:41:24.011Z,5.53
2023-02-22T02:44:04.741Z,5.30
2023-02-22T02:46:40.212Z,5.22
2023-02-22T02:49:15.047Z,5.68
2023-02-22T02:51:47.999Z,6.65
2023-02-22T02:54:15.920Z,5.95
2023-02-22T02:56:45.873Z,5.82
2023-02-22T02:59:29.640Z,4.80
2023-02-22T03:02:37.180Z,7.10
2023-02-22T03:05:18.894Z,5.50
2023-02-22T03:08:13.804Z,4.95
2023-02-22T03:11:04.111Z,6.35
2023-02-22T03:13:55.743Z,6.93
2023-02-22T03:16:45.981Z,4.72
2023-02-22T03:19:22.750Z,4.78
2023-02-22T03:22:16.421Z,6.28
2023-02-22T03:24:53.142Z,5.25
2023-02-22T03:27:28.162Z,4.70
2023-02-22T03:30:00.453Z,6.45
2023-02-22T03:32:31.476Z,4.90
2023-02-22T03:35:07.920Z,5.43
2023-02-22T03:37:40.624Z,8.05
2023-02-22T03:40:14.398Z,13.52
2023-02-22T03:42:46.607Z,11.95
2023-02-22T03:45:15.920Z,11.55
2023-02-22T03:47:52.590Z,9.82
2023-02-22T03:50:32.726Z,13.52
2023-02-22T03:52:59.567Z,8.75
2023-02-22T03:55:28.855Z,12.77
2023-02-22T03:57:59.394Z,8.80
2023-02-22T04:00:30.769Z,9.00
2023-02-22T04:02:57.836Z,9.48
2023-02-22T04:05:25.957Z,11.38
2023-02-22T04:07:54.342Z,10.25
2023-02-22T04:10:21.522Z,9.93
2023-02-22T04:12:48.562Z,10.52
2023-02-22T04:15:18.229Z,10.07
2023-02-22T04:17:44.993Z,11.73
2023-02-22T04:20:13.677Z,12.05
2023-02-22T04:22:41.566Z,13.63
2023-02-22T04:25:08.731Z,9.57
2023-02-22T04:27:35.579Z,11.30
2023-02-22T04:30:02.438Z,8.65
2023-02-22T04:32:29.198Z,9.32
2023-02-22T04:34:56.006Z,10.93
2023-02-22T04:37:22.848Z,9.27
2023-02-22T04:39:49.714Z,7.13
2023-02-22T04:42:16.499Z,9.32
2023-02-22T04:44:43.315Z,11.10
2023-02-22T04:47:10.110Z,9.85
2023-02-22T04:49:38.950Z,9.68
2023-02-22T04:52:05.873Z,9.55
2023-02-22T04:54:32.619Z,9.23
2023-02-22T04:56:59.366Z,9.07
2023-02-22T04:59:26.481Z,10.93
2023-02-22T05:01:53.768Z,9.13
2023-02-22T05:04:21.731Z,8.65
2023-02-22T05:06:48.691Z,9.52
2023-02-22T05:09:15.680Z,11.02
2023-02-22T05:11:42.443Z,11.05
2023-02-22T05:14:09.300Z,11.57
2023-02-22T05:16:36.239Z,11.02
2023-02-22T05:19:03.637Z,12.00
2023-02-22T05:21:30.459Z,11.57
2023-02-22T05:23:57.593Z,8.00
2023-02-22T05:26:24.698Z,13.00
2023-02-22T05:28:51.464Z,9.93
2023-02-22T05:31:18.528Z,11.35
2023-02-22T05:33:45.555Z,11.45
2023-02-22T05:36:12.330Z,11.23
2023-02-22T05:38:44.054Z,11.70
2023-02-22T05:41:12.441Z,11.55
2023-02-22T05:43:40.417Z,14.23
2023-02-22T05:46:07.877Z,12.35
2023-02-22T05:48:34.789Z,12.00
2023-02-22T05:51:05.076Z,11.10
2023-02-22T05:53:32.027Z,12.52
2023-02-22T05:55:59.248Z,10.48
2023-02-22T05:58:25.988Z,12.20
2023-02-22T06:00:52.766Z,12.65
2023-02-22T06:03:19.556Z,13.55
2023-02-22T06:05:46.404Z,16.75
2023-02-22T06:08:13.265Z,13.32
2023-02-22T06:10:40.060Z,15.80
2023-02-22T06:13:07.333Z,13.45
2023-02-22T06:15:34.174Z,15.05
2023-02-22T06:18:02.495Z,15.38
2023-02-22T06:20:30.555Z,18.98
2023-02-22T06:22:59.082Z,15.88
2023-02-22T06:25:28.259Z,18.60
2023-02-22T06:27:55.010Z,17.45
2023-02-22T06:30:24.575Z,19.83
2023-02-22T06:32:51.537Z,20.25
2023-02-22T06:35:19.193Z,17.75
2023-02-22T06:37:46.142Z,19.55
2023-02-22T06:40:14.142Z,20.80
2023-02-22T06:42:41.320Z,18.25
2023-02-22T06:45:09.356Z,20.08
2023-02-22T06:47:41.426Z,16.40
2023-02-22T06:50:22.816Z,19.63
2023-02-22T06:52:49.652Z,18.00
2023-02-22T06:55:22.747Z,17.38
2023-02-22T06:57:49.568Z,19.08
2023-02-22T07:00:19.251Z,14.98
2023-02-22T07:02:48.463Z,15.98
2023-02-22T07:05:17.233Z,16.02
2023-02-22T07:07:44.179Z,15.27
2023-02-22T07:10:36.389Z,17.52
2023-02-22T07:13:05.005Z,18.33
2023-02-22T07:15:34.218Z,14.43
2023-02-22T07:18:01.684Z,14.50
2023-02-22T07:20:30.158Z,14.40
2023-02-22T07:22:56.908Z,15.00
2023-02-22T07:25:24.346Z,20.08
2023-02-22T07:27:53.022Z,22.73
2023-02-22T07:30:25.197Z,29.15
2023-02-22T07:32:54.430Z,20.52
2023-02-22T07:35:26.366Z,17.90
2023-02-22T07:37:55.835Z,21.00
2023-02-22T07:40:24.022Z,21.95
2023-02-22T07:42:59.628Z,19.25
2023-02-22T07:45:34.523Z,14.43
2023-02-22T07:48:03.357Z,14.45
2023-02-22T07:50:32.274Z,16.08
2023-02-22T07:53:01.563Z,14.73
2023-02-22T07:55:30.501Z,14.77
2023-02-22T07:57:59.935Z,14.23
2023-02-22T08:00:32.834Z,11.65
2023-02-22T08:03:03.735Z,12.80
2023-02-22T08:05:34.677Z,13.30
2023-02-22T08:08:02.185Z,14.05
2023-02-22T08:10:29.127Z,12.32
2023-02-22T08:12:56.081Z,16.45
2023-02-22T08:15:26.492Z,14.32
2023-02-22T08:17:53.707Z,13.15
2023-02-22T08:20:20.842Z,14.77
2023-02-22T08:22:48.458Z,16.50
2023-02-22T08:25:17.321Z,18.13
2023-02-22T08:27:44.217Z,16.40
2023-02-22T08:30:18.804Z,12.32
2023-02-22T08:32:47.006Z,11.27
2023-02-22T08:35:15.627Z,11.85
2023-02-22T08:37:47.701Z,15.30
2023-02-22T08:40:17.409Z,14.05
2023-02-22T08:42:44.609Z,13.45
2023-02-22T08:45:13.397Z,12.82
2023-02-22T08:47:40.930Z,15.35
2023-02-22T08:50:09.466Z,10.25
2023-02-22T08:52:36.285Z,11.25
2023-02-22T08:55:03.649Z,10.07
2023-02-22T08:57:31.879Z,13.95
2023-02-22T08:59:58.688Z,27.90
2023-02-22T09:02:25.590Z,73.07
2023-02-22T09:04:52.374Z,68.03
2023-02-22T09:07:19.180Z,49.72
2023-02-22T09:09:46.561Z,28.63
2023-02-22T09:12:14.427Z,23.52
2023-02-22T09:14:42.955Z,14.20
2023-02-22T09:17:09.872Z,16.35
2023-02-22T09:19:36.659Z,13.93
2023-02-22T09:22:03.494Z,10.93
2023-02-22T09:24:30.695Z,12.68
2023-02-22T09:26:59.610Z,11.68
2023-02-22T09:29:27.644Z,10.07
2023-02-22T09:31:55.972Z,7.60
2023-02-22T09:34:29.602Z,13.10
2023-02-22T09:36:57.753Z,11.57
2023-02-22T09:39:25.427Z,9.43
2023-02-22T09:42:14.348Z,9.27
2023-02-22T09:44:56.673Z,9.35
2023-02-22T09:47:56.438Z,12.68
2023-02-22T09:50:28.586Z,10.48
2023-02-22T09:53:12.382Z,10.25
2023-02-22T09:55:52.839Z,14.13
2023-02-22T09:58:43.164Z,12.27
2023-02-22T10:01:23.073Z,13.40
2023-02-22T10:04:20.125Z,12.82
2023-02-22T10:09:30.391Z,12.07
2023-02-22T10:12:23.369Z,13.60
2023-02-22T10:15:18.459Z,14.20
2023-02-22T10:17:59.731Z,12.88
2023-02-22T10:20:37.344Z,7.43
2023-02-22T10:23:23.430Z,9.18
2023-02-22T10:25:57.424Z,8.20
2023-02-22T10:28:30.996Z,8.70
2023-02-22T10:31:02.573Z,9.43
2023-02-22T10:33:42.239Z,8.80
2023-02-22T10:36:20.042Z,7.30
2023-02-22T10:39:25.106Z,11.93
2023-02-22T10:41:55.833Z,10.52
2023-02-22T10:44:22.990Z,10.80
2023-02-22T10:46:50.642Z,11.90
2023-02-22T10:49:22.592Z,10.15
2023-02-22T10:52:01.767Z,9.70
2023-02-22T10:54:38.857Z,12.43
2023-02-22T10:57:05.898Z,11.20
2023-02-22T10:59:34.217Z,11.70
2023-02-22T11:02:28.864Z,12.07
2023-02-22T11:04:59.487Z,11.30
2023-02-22T11:07:30.266Z,9.00
2023-02-22T11:10:02.427Z,10.48
2023-02-22T11:12:32.508Z,10.23
2023-02-22T11:15:36.036Z,8.35
2023-02-22T11:18:02.848Z,8.27
2023-02-22T11:20:35.623Z,10.25
2023-02-22T11:23:04.349Z,12.40
2023-02-22T11:25:42.341Z,7.55
2023-02-22T11:28:20.933Z,11.27
2023-02-22T11:30:51.677Z,10.38
2023-02-22T11:33:23.747Z,11.82
2023-02-22T11:35:58.489Z,13.52
2023-02-22T11:38:26.273Z,11.93
2023-02-22T11:41:14.788Z,10.90
2023-02-22T11:43:44.132Z,11.52
2023-02-22T11:46:17.845Z,13.80
2023-02-22T11:49:09.662Z,11.80
2023-02-22T11:52:01.154Z,10.20
2023-02-22T11:54:31.545Z,9.75
2023-02-22T11:57:26.350Z,10.25
2023-02-22T12:00:16.446Z,10.23
2023-02-22T12:03:06.400Z,11.82
2023-02-22T12:06:02.429Z,10.98
2023-02-22T12:08:41.483Z,11.83
2023-02-22T12:11:19.262Z,15.90
2023-02-22T12:14:11.902Z,15.13
2023-02-22T12:16:44.209Z,20.33
2023-02-22T12:19:26.329Z,20.63
2023-02-22T12:22:02.360Z,19.38
2023-02-22T12:27:35.433Z,14.07
2023-02-22T12:30:24.984Z,15.52
2023-02-22T12:32:55.291Z,16.88
2023-02-22T12:35:28.565Z,13.32
2023-02-22T12:38:06.584Z,14.68
2023-02-22T12:41:06.100Z,13.23
2023-02-22T12:43:44.869Z,12.80
2023-02-22T12:46:26.366Z,11.75
2023-02-22T12:49:10.317Z,11.70
2023-02-22T12:51:49.857Z,15.60
2023-02-22T12:54:45.828Z,10.23
2023-02-22T12:57:33.736Z,13.75
2023-02-22T13:00:23.234Z,16.85
2023-02-22T13:03:05.354Z,15.18
2023-02-22T13:05:39.749Z,16.35
2023-02-22T13:08:32.716Z,18.70
2023-02-22T13:11:21.103Z,16.45
2023-02-22T13:14:00.105Z,12.43
2023-02-22T13:16:57.348Z,13.25
2023-02-22T13:19:35.838Z,13.75
2023-02-22T13:22:10.169Z,17.10
2023-02-22T13:24:58.592Z,10.60
2023-02-22T13:27:38.305Z,16.13
2023-02-22T13:30:13.495Z,12.15
2023-02-22T13:32:57.764Z,11.20
2023-02-22T13:35:39.790Z,12.35
2023-02-22T13:38:23.425Z,11.85
2023-02-22T13:41:02.282Z,11.20
2023-02-22T13:43:42.441Z,14.18
2023-02-22T13:46:12.911Z,11.18
2023-02-22T13:49:18.567Z,11.90
2023-02-22T13:52:03.257Z,11.05
2023-02-22T13:54:37.583Z,11.98
2023-02-22T13:57:17.165Z,14.10
2023-02-22T13:59:44.194Z,11.60
2023-02-22T14:02:49.368Z,11.15
2023-02-22T14:05:36.478Z,10.13
2023-02-22T14:08:03.629Z,13.27
2023-02-22T14:10:48.476Z,10.25
2023-02-22T14:13:17.981Z,12.00
2023-02-22T14:16:02.730Z,12.43
2023-02-22T14:18:50.826Z,13.80
2023-02-22T14:21:20.829Z,11.95
2023-02-22T14:23:55.791Z,11.15
2023-02-22T14:26:27.563Z,14.30
2023-02-22T14:29:09.967Z,10.65
2023-02-22T14:31:59.781Z,18.55
2023-02-22T14:34:46.890Z,10.95
2023-02-22T14:37:24.885Z,12.02
2023-02-22T14:40:02.187Z,14.15
2023-02-22T14:42:34.372Z,17.00
2023-02-22T14:45:17.956Z,20.15
2023-02-22T14:48:01.204Z,17.45
2023-02-22T14:50:44.158Z,16.80
2023-02-22T14:53:22.961Z,19.08
2023-02-22T14:56:02.678Z,17.25
2023-02-22T14:58:47.359Z,17.20
2023-02-22T15:01:44.444Z,15.60
2023-02-22T15:04:22.055Z,20.63
2023-02-22T15:06:50.151Z,20.27
2023-02-22T15:09:28.944Z,18.02
2023-02-22T15:12:05.457Z,19.58
2023-02-22T15:14:47.716Z,22.15
2023-02-22T15:17:20.269Z,18.65
2023-02-22T15:19:51.343Z,19.20
2023-02-22T15:22:26.207Z,17.85
2023-02-22T15:25:01.911Z,18.70
2023-02-22T15:27:29.471Z,22.25
2023-02-22T15:30:09.522Z,21.00
2023-02-22T15:32:53.261Z,17.35
2023-02-22T15:35:28.396Z,20.85
2023-02-22T15:37:59.254Z,17.63
2023-02-22T15:40:33.110Z,23.52
2023-02-22T15:43:10.936Z,22.50
2023-02-22T15:45:43.134Z,27.10
2023-02-22T15:48:15.831Z,26.33
2023-02-22T15:50:58.647Z,25.25
2023-02-22T15:53:30.189Z,20.92
2023-02-22T15:55:59.838Z,28.50
2023-02-22T15:58:31.243Z,26.98
2023-02-22T16:01:12.419Z,14.07
2023-02-22T16:03:47.417Z,19.73
2023-02-22T16:06:33.519Z,21.23
2023-02-22T16:09:08.839Z,17.90
2023-02-22T16:11:40.455Z,18.58
2023-02-22T16:14:50.096Z,16.25
2023-02-22T16:17:41.153Z,18.33
2023-02-22T16:20:13.237Z,17.95
2023-02-22T16:22:46.570Z,17.30
2023-02-22T16:25:27.366Z,30.63
2023-02-22T16:28:16.365Z,30.52
2023-02-22T16:30:43.258Z,24.50
2023-02-22T16:33:13.811Z,15.50
2023-02-22T16:35:41.035Z,20.90
2023-02-22T16:38:16.883Z,25.40
2023-02-22T16:43:32.867Z,15.35
2023-02-22T16:46:03.870Z,16.20
2023-02-22T16:48:32.808Z,17.90
2023-02-22T16:51:06.300Z,16.55
2023-02-22T16:53:33.655Z,16.75
2023-02-22T16:56:08.577Z,14.90
2023-02-22T16:58:39.463Z,15.48
2023-02-22T17:01:06.876Z,17.23
2023-02-22T17:03:33.686Z,20.30
2023-02-22T17:06:00.585Z,25.00
2023-02-22T17:08:27.368Z,24.58
2023-02-22T17:10:57.384Z,18.42
2023-02-22T17:13:27.586Z,16.90
2023-02-22T17:15:55.097Z,14.63
2023-02-22T17:18:23.306Z,13.63
2023-02-22T17:20:55.021Z,21.08
2023-02-22T17:23:23.082Z,19.15
2023-02-22T17:26:03.965Z,15.52
2023-02-22T17:28:31.545Z,16.08
2023-02-22T17:31:02.938Z,21.67
2023-02-22T17:33:36.662Z,19.20
2023-02-22T17:36:05.122Z,22.48
2023-02-22T17:38:32.320Z,19.77
2023-02-22T17:41:01.285Z,21.13
2023-02-22T17:43:28.758Z,21.85
2023-02-22T17:45:56.791Z,21.88
2023-02-22T17:48:24.581Z,22.48
2023-02-22T17:50:52.080Z,23.48
2023-02-22T17:53:22.619Z,21.15
2023-02-22T17:55:50.099Z,25.58
2023-02-22T17:58:17.372Z,33.30
2023-02-22T18:00:49.497Z,40.03
2023-02-22T18:03:21.919Z,17.95
2023-02-22T18:05:51.175Z,18.38
2023-02-22T18:08:18.364Z,18.63
2023-02-22T18:10:46.449Z,22.15
2023-02-22T18:13:18.092Z,21.40
2023-02-22T18:15:46.613Z,14.85
2023-02-22T18:18:14.930Z,18.05
2023-02-22T18:20:44.478Z,16.10
2023-02-22T18:23:16.984Z,14.43
2023-02-22T18:26:03.681Z,14.95
2023-02-22T18:28:35.934Z,16.75
2023-02-22T18:31:07.980Z,16.55
2023-02-22T18:33:34.820Z,15.02
2023-02-22T18:36:01.646Z,16.38
2023-02-22T18:38:28.486Z,16.17
2023-02-22T18:41:02.822Z,17.55
2023-02-22T18:43:31.830Z,16.38
2023-02-22T18:46:20.190Z,14.23
2023-02-22T18:48:48.144Z,14.07
2023-02-22T18:51:17.584Z,17.60
2023-02-22T18:53:47.049Z,17.83
2023-02-22T18:56:16.854Z,17.23
2023-02-22T18:58:44.026Z,17.35
2023-02-22T19:01:16.874Z,20.92
2023-02-22T19:03:43.943Z,21.77
2023-02-22T19:06:10.778Z,21.52
2023-02-22T19:08:42.943Z,20.60
2023-02-22T19:11:11.161Z,17.88
2023-02-22T19:13:38.571Z,22.13
2023-02-22T19:16:07.761Z,18.23
2023-02-22T19:18:34.652Z,20.52
2023-02-22T19:21:03.343Z,18.77
2023-02-22T19:23:34.406Z,17.92
2023-02-22T19:26:03.577Z,19.02
2023-02-22T19:28:34.545Z,16.92
2023-02-22T19:31:26.760Z,14.73
2023-02-22T19:33:53.846Z,16.35
2023-02-22T19:36:25.287Z,17.13
2023-02-22T19:38:52.363Z,16.02
2023-02-22T19:41:22.276Z,17.35
2023-02-22T19:43:51.277Z,19.42
2023-02-22T19:46:18.728Z,15.38
2023-02-22T19:48:45.943Z,17.05
2023-02-22T19:51:15.054Z,15.43
2023-02-22T19:53:43.228Z,16.85
2023-02-22T19:56:13.243Z,14.15
2023-02-22T19:58:41.252Z,21.05
2023-02-22T20:01:22.910Z,15.60
2023-02-22T20:03:55.115Z,21.85
2023-02-22T20:06:28.323Z,16.63
2023-02-22T20:08:56.543Z,23.60
2023-02-22T20:11:24.735Z,20.55
2023-02-22T20:13:51.634Z,21.02
2023-02-22T20:16:18.644Z,22.30
2023-02-22T20:18:47.070Z,26.98
2023-02-22T20:21:21.903Z,16.50
2023-02-22T20:23:49.357Z,14.40
2023-02-22T20:26:19.196Z,14.07
2023-02-22T20:28:47.357Z,13.75
2023-02-22T20:31:15.031Z,13.48
2023-02-22T20:33:42.813Z,13.77
2023-02-22T20:36:10.832Z,12.43
2023-02-22T20:38:38.778Z,13.55
2023-02-22T20:41:13.152Z,14.52
2023-02-22T20:43:40.113Z,15.77
2023-02-22T20:46:07.739Z,13.10
2023-02-22T20:48:34.943Z,17.92
2023-02-22T20:51:09.495Z,17.50
2023-02-22T20:53:39.408Z,17.60
2023-02-22T20:56:06.828Z,15.55
2023-02-22T20:58:34.092Z,16.50
2023-02-22T21:01:08.974Z,16.55
2023-02-22T21:03:36.584Z,15.13
2023-02-22T21:06:05.152Z,15.27
2023-02-22T21:08:32.697Z,18.40
2023-02-22T21:11:00.251Z,13.80
2023-02-22T21:13:27.593Z,14.00
2023-02-22T21:15:54.400Z,16.45
2023-02-22T21:18:23.349Z,12.93
2023-02-22T21:20:51.517Z,13.88
2023-02-22T21:23:18.317Z,17.83
2023-02-22T21:25:52.448Z,15.20
2023-02-22T21:28:19.325Z,17.85
2023-02-22T21:30:47.403Z,14.88
2023-02-22T21:33:17.832Z,19.85
2023-02-22T21:35:47.100Z,16.08
2023-02-22T21:38:14.602Z,14.93
2023-02-22T21:40:42.627Z,17.40
2023-02-22T21:43:12.788Z,18.55
2023-02-22T21:45:39.623Z,18.23
2023-02-22T21:48:06.793Z,21.58
2023-02-22T21:50:37.733Z,43.63
2023-02-22T21:53:05.944Z,33.25
2023-02-22T21:55:33.789Z,26.92
2023-02-22T21:58:00.716Z,24.35
2023-02-22T22:00:31.495Z,26.10
2023-02-22T22:03:20.304Z,21.02
2023-02-22T22:05:48.245Z,20.60
2023-02-22T22:08:21.855Z,17.58
2023-02-22T22:10:55.288Z,22.48
2023-02-22T22:13:23.018Z,22.40
2023-02-22T22:15:50.021Z,23.33
2023-02-22T22:18:17.093Z,25.67
2023-02-22T22:20:45.004Z,21.58
2023-02-22T22:23:12.553Z,20.50
2023-02-22T22:25:39.424Z,21.77
2023-02-22T22:28:11.336Z,25.23
2023-02-22T22:30:38.450Z,23.55
2023-02-22T22:33:11.518Z,18.98
2023-02-22T22:35:41.945Z,19.70
2023-02-22T22:38:09.502Z,21.77
2023-02-22T22:40:38.874Z,27.38
2023-02-22T22:43:06.139Z,20.13
2023-02-22T22:45:33.005Z,16.15
2023-02-22T22:47:59.831Z,19.10
2023-02-22T22:50:26.908Z,19.00
2023-02-22T22:52:55.660Z,13.68
2023-02-22T22:55:24.314Z,15.82
2023-02-22T22:57:53.976Z,17.25
2023-02-22T23:00:37.513Z,16.75
2023-02-22T23:03:05.813Z,16.23
2023-02-22T23:05:39.638Z,15.15
2023-02-22T23:08:10.477Z,14.43
2023-02-22T23:10:39.298Z,13.15
2023-02-22T23:13:12.624Z,14.68
2023-02-22T23:15:43.896Z,11.35
2023-02-22T23:18:10.666Z,17.38
2023-02-22T23:20:39.357Z,15.32
2023-02-22T23:23:06.922Z,16.20
2023-02-22T23:25:34.487Z,16.17
2023-02-22T23:28:01.270Z,17.98
2023-02-22T23:30:28.056Z,21.55
2023-02-22T23:32:57.122Z,17.30
2023-02-22T23:35:23.874Z,15.85
2023-02-22T23:37:53.479Z,15.65
2023-02-22T23:40:20.351Z,15.52
2023-02-22T23:42:53.805Z,13.20
2023-02-22T23:45:24.924Z,17.65
2023-02-22T23:48:01.690Z,14.93
2023-02-22T23:50:30.062Z,26.58
2023-02-22T23:53:03.555Z,14.90
2023-02-22T23:55:32.627Z,17.65
2023-02-22T23:58:00.414Z,18.80
